createdAt,value
2022-08-28T00:01:27.143Z,3.30
2022-08-28T00:03:57.959Z,3.40
2022-08-28T00:06:24.781Z,3.53
2022-08-28T00:08:54.068Z,3.50
2022-08-28T00:11:23.455Z,3.40
2022-08-28T00:13:54.992Z,3.23
2022-08-28T00:16:30.371Z,3.60
2022-08-28T00:19:01.339Z,3.50
2022-08-28T00:21:33.028Z,3.20
2022-08-28T00:24:04.946Z,3.30
2022-08-28T00:26:50.571Z,3.33
2022-08-28T00:29:19.726Z,3.30
2022-08-28T00:31:48.929Z,3.37
2022-08-28T00:34:20.936Z,3.30
2022-08-28T00:37:03.296Z,3.33
2022-08-28T00:39:31.151Z,3.27
2022-08-28T00:41:58.783Z,3.17
2022-08-28T00:44:28.678Z,3.17
2022-08-28T00:46:59.162Z,3.37
2022-08-28T00:49:37.395Z,3.47
2022-08-28T00:52:11.911Z,3.30
2022-08-28T00:54:59.050Z,3.37
2022-08-28T00:57:40.285Z,3.57
2022-08-28T01:00:13.125Z,3.50
2022-08-28T01:02:43.901Z,3.10
2022-08-28T01:05:13.263Z,3.67
2022-08-28T01:07:40.165Z,3.23
2022-08-28T01:10:18.191Z,3.30
2022-08-28T01:12:49.952Z,3.53
2022-08-28T01:15:28.199Z,3.60
2022-08-28T01:18:08.456Z,3.50
2022-08-28T01:20:46.937Z,3.30
2022-08-28T01:23:36.554Z,3.30
2022-08-28T01:26:06.556Z,3.47
2022-08-28T01:28:43.390Z,3.60
2022-08-28T01:31:13.471Z,3.70
2022-08-28T01:33:47.879Z,3.73
2022-08-28T01:36:15.988Z,4.00
2022-08-28T01:38:52.022Z,3.50
2022-08-28T01:41:19.253Z,3.60
2022-08-28T01:43:46.103Z,3.83
2022-08-28T01:46:13.171Z,3.40
2022-08-28T01:48:43.574Z,3.63
2022-08-28T01:51:14.395Z,3.90
2022-08-28T01:53:41.945Z,4.07
2022-08-28T01:56:17.084Z,3.37
2022-08-28T01:58:45.055Z,3.47
2022-08-28T02:01:22.192Z,3.70
2022-08-28T02:03:52.824Z,3.50
2022-08-28T02:06:22.391Z,3.53
2022-08-28T02:08:55.367Z,4.13
2022-08-28T02:11:24.175Z,3.57
2022-08-28T02:13:57.115Z,3.93
2022-08-28T02:16:27.541Z,3.60
2022-08-28T02:18:56.868Z,3.40
2022-08-28T02:21:26.026Z,3.63
2022-08-28T02:23:53.571Z,3.50
2022-08-28T02:26:21.570Z,3.50
2022-08-28T02:28:48.447Z,3.23
2022-08-28T02:31:17.990Z,3.20
2022-08-28T02:33:45.663Z,3.50
2022-08-28T02:36:14.971Z,3.40
2022-08-28T02:38:43.986Z,3.73
2022-08-28T02:41:13.655Z,3.20
2022-08-28T02:43:40.980Z,3.73
2022-08-28T02:46:10.975Z,3.73
2022-08-28T02:48:41.905Z,3.23
2022-08-28T02:51:13.288Z,3.50
2022-08-28T02:53:43.358Z,3.37
2022-08-28T02:56:12.728Z,3.47
2022-08-28T02:58:44.798Z,3.77
2022-08-28T03:01:13.837Z,3.50
2022-08-28T03:03:42.120Z,3.60
2022-08-28T03:06:12.449Z,3.53
2022-08-28T03:08:42.221Z,3.53
2022-08-28T03:11:10.490Z,4.10
2022-08-28T03:13:37.829Z,3.47
2022-08-28T03:16:09.507Z,3.30
2022-08-28T03:18:39.178Z,3.17
2022-08-28T03:21:08.662Z,3.70
2022-08-28T03:23:35.497Z,3.73
2022-08-28T03:26:16.904Z,3.73
2022-08-28T03:28:57.472Z,3.50
2022-08-28T03:31:33.184Z,3.40
2022-08-28T03:34:05.058Z,4.03
2022-08-28T03:36:32.711Z,3.80
2022-08-28T03:39:06.458Z,4.40
2022-08-28T03:41:34.223Z,3.70
2022-08-28T03:44:03.698Z,4.13
2022-08-28T03:46:38.027Z,3.33
2022-08-28T03:49:10.404Z,3.27
2022-08-28T03:51:43.779Z,3.57
2022-08-28T03:54:17.337Z,3.70
2022-08-28T03:56:49.054Z,3.63
2022-08-28T03:59:21.391Z,3.80
2022-08-28T04:01:53.027Z,3.50
2022-08-28T04:04:19.974Z,3.77
2022-08-28T04:06:46.808Z,3.50
2022-08-28T04:09:13.640Z,3.63
2022-08-28T04:11:42.559Z,3.30
2022-08-28T04:14:11.556Z,4.00
2022-08-28T04:16:38.677Z,3.47
2022-08-28T04:19:07.872Z,3.53
2022-08-28T04:21:37.227Z,3.60
2022-08-28T04:24:09.898Z,3.50
2022-08-28T04:26:36.873Z,3.50
2022-08-28T04:29:06.073Z,3.57
2022-08-28T04:31:33.694Z,3.70
2022-08-28T04:34:08.518Z,3.70
2022-08-28T04:36:36.247Z,3.40
2022-08-28T04:39:08.364Z,3.60
2022-08-28T04:41:40.645Z,3.70
2022-08-28T04:44:10.406Z,3.50
2022-08-28T04:46:38.543Z,3.37
2022-08-28T04:49:08.051Z,3.50
2022-08-28T04:51:36.896Z,3.60
2022-08-28T04:54:13.005Z,3.50
2022-08-28T04:56:41.181Z,4.10
2022-08-28T04:59:08.386Z,3.30
2022-08-28T05:01:43.997Z,3.40
2022-08-28T05:04:14.126Z,3.23
2022-08-28T05:06:45.913Z,3.30
2022-08-28T05:09:18.591Z,3.40
2022-08-28T05:11:49.111Z,3.20
2022-08-28T05:14:21.631Z,3.30
2022-08-28T05:16:57.142Z,3.40
2022-08-28T05:19:26.884Z,3.10
2022-08-28T05:21:56.787Z,3.20
2022-08-28T05:24:26.255Z,3.00
2022-08-28T05:26:58.045Z,3.10
2022-08-28T05:29:27.019Z,3.33
2022-08-28T05:31:56.043Z,3.13
2022-08-28T05:34:23.076Z,2.80
2022-08-28T05:36:49.916Z,3.27
2022-08-28T05:39:22.245Z,2.83
2022-08-28T05:41:51.965Z,3.40
2022-08-28T05:44:19.609Z,3.50
2022-08-28T05:46:49.185Z,3.63
2022-08-28T05:49:19.818Z,3.10
2022-08-28T05:51:49.300Z,3.20
2022-08-28T05:54:18.968Z,2.73
2022-08-28T05:56:46.598Z,2.93
2022-08-28T05:59:15.793Z,3.00
2022-08-28T06:01:52.170Z,3.10
2022-08-28T06:04:33.254Z,3.00
2022-08-28T06:07:02.639Z,3.87
2022-08-28T06:09:34.515Z,3.23
2022-08-28T06:12:02.697Z,3.17
2022-08-28T06:14:31.124Z,2.90
2022-08-28T06:16:58.698Z,3.10
2022-08-28T06:19:32.381Z,2.70
2022-08-28T06:22:07.591Z,3.47
2022-08-28T06:24:34.960Z,3.70
2022-08-28T06:27:04.693Z,3.10
2022-08-28T06:29:33.996Z,3.30
2022-08-28T06:32:04.743Z,3.00
2022-08-28T06:34:31.905Z,3.37
2022-08-28T06:36:58.735Z,3.00
2022-08-28T06:39:28.109Z,2.87
2022-08-28T06:41:57.683Z,2.90
2022-08-28T06:44:27.043Z,3.03
2022-08-28T06:46:57.832Z,3.00
2022-08-28T06:49:25.145Z,2.87
2022-08-28T06:51:56.113Z,3.00
2022-08-28T06:54:25.413Z,2.70
2022-08-28T06:56:55.219Z,2.80
2022-08-28T06:59:24.461Z,2.57
2022-08-28T07:01:57.085Z,2.70
2022-08-28T07:04:28.756Z,2.80
2022-08-28T07:06:55.602Z,2.80
2022-08-28T07:09:26.186Z,2.77
2022-08-28T07:11:53.473Z,3.10
2022-08-28T07:14:26.074Z,2.70
2022-08-28T07:16:56.973Z,2.57
2022-08-28T07:19:26.559Z,2.50
2022-08-28T07:21:55.606Z,3.60
2022-08-28T07:24:23.481Z,3.43
2022-08-28T07:26:50.431Z,3.00
2022-08-28T07:29:19.395Z,2.90
2022-08-28T07:31:52.483Z,2.97
2022-08-28T07:34:27.157Z,2.80
2022-08-28T07:36:58.200Z,3.43
2022-08-28T07:39:24.972Z,3.53
2022-08-28T07:41:53.983Z,2.80
2022-08-28T07:44:41.761Z,2.90
2022-08-28T07:47:13.484Z,2.80
2022-08-28T07:49:41.420Z,2.93
2022-08-28T07:52:12.393Z,3.03
2022-08-28T07:54:44.970Z,3.03
2022-08-28T07:57:11.773Z,2.77
2022-08-28T07:59:39.913Z,2.93
2022-08-28T08:02:12.063Z,2.60
2022-08-28T08:04:41.856Z,2.60
2022-08-28T08:07:09.590Z,3.67
2022-08-28T08:09:42.286Z,3.37
2022-08-28T08:12:14.996Z,2.87
2022-08-28T08:14:49.445Z,2.87
2022-08-28T08:17:16.331Z,3.40
2022-08-28T08:19:43.133Z,2.60
2022-08-28T08:22:09.995Z,2.67
2022-08-28T08:24:36.764Z,2.97
2022-08-28T08:27:10.579Z,2.87
2022-08-28T08:29:40.512Z,2.97
2022-08-28T08:32:12.184Z,2.93
2022-08-28T08:34:49.512Z,2.80
2022-08-28T08:37:18.859Z,3.07
2022-08-28T08:39:53.285Z,3.10
2022-08-28T08:42:31.896Z,2.97
2022-08-28T08:45:04.094Z,3.17
2022-08-28T08:47:40.658Z,3.50
2022-08-28T08:50:18.507Z,3.20
2022-08-28T08:53:26.927Z,3.10
2022-08-28T08:56:05.536Z,3.17
2022-08-28T08:58:38.305Z,3.10
2022-08-28T09:01:25.501Z,2.70
2022-08-28T09:04:22.979Z,2.60
2022-08-28T09:07:17.993Z,3.33
2022-08-28T09:10:03.015Z,2.97
2022-08-28T09:12:42.680Z,2.60
2022-08-28T09:15:35.763Z,3.20
2022-08-28T09:18:18.075Z,2.60
2022-08-28T09:20:52.162Z,2.87
2022-08-28T09:23:23.838Z,2.70
2022-08-28T09:25:55.785Z,3.10
2022-08-28T09:28:22.785Z,2.67
2022-08-28T09:30:58.998Z,2.53
2022-08-28T09:33:43.138Z,2.60
2022-08-28T09:36:36.423Z,2.87
2022-08-28T09:39:06.174Z,2.80
2022-08-28T09:41:58.842Z,2.90
2022-08-28T09:44:28.244Z,2.70
2022-08-28T09:46:57.368Z,2.70
2022-08-28T09:49:30.277Z,2.70
2022-08-28T09:52:18.190Z,2.57
2022-08-28T09:54:49.935Z,2.77
2022-08-28T09:57:16.731Z,2.80
2022-08-28T09:59:45.864Z,2.70
2022-08-28T10:02:46.458Z,3.10
2022-08-28T10:05:26.773Z,2.83
2022-08-28T10:08:05.513Z,2.93
2022-08-28T10:10:43.324Z,2.70
2022-08-28T10:13:14.794Z,3.70
2022-08-28T10:15:53.354Z,3.60
2022-08-28T10:18:43.170Z,2.97
2022-08-28T10:21:32.053Z,2.97
2022-08-28T10:24:33.313Z,3.03
2022-08-28T10:27:12.265Z,2.70
2022-08-28T10:30:08.812Z,3.37
2022-08-28T10:33:02.175Z,3.30
2022-08-28T10:36:26.513Z,3.33
2022-08-28T10:39:18.416Z,3.00
2022-08-28T10:41:54.037Z,2.83
2022-08-28T10:44:43.937Z,4.00
2022-08-28T10:47:13.234Z,3.20
2022-08-28T10:49:51.407Z,2.60
2022-08-28T10:52:33.328Z,2.70
2022-08-28T10:55:25.464Z,3.00
2022-08-28T10:58:21.137Z,3.87
2022-08-28T11:01:01.744Z,3.23
2022-08-28T11:03:34.727Z,2.87
2022-08-28T11:06:17.945Z,3.00
2022-08-28T11:08:56.464Z,3.03
2022-08-28T11:11:48.929Z,3.20
2022-08-28T11:14:48.422Z,3.37
2022-08-28T11:17:33.117Z,3.10
2022-08-28T11:20:17.600Z,3.50
2022-08-28T11:23:01.742Z,3.00
2022-08-28T11:25:54.904Z,3.10
2022-08-28T11:28:28.283Z,3.40
2022-08-28T11:31:01.252Z,3.10
2022-08-28T11:33:56.114Z,2.83
2022-08-28T11:36:23.040Z,3.17
2022-08-28T11:38:55.487Z,3.17
2022-08-28T11:42:10.503Z,3.20
2022-08-28T11:44:46.617Z,3.10
2022-08-28T11:47:45.206Z,2.90
2022-08-28T11:50:25.250Z,3.13
2022-08-28T11:53:14.530Z,3.00
2022-08-28T11:56:08.798Z,3.43
2022-08-28T11:58:56.714Z,3.27
2022-08-28T12:01:36.189Z,3.43
2022-08-28T12:04:13.353Z,3.73
2022-08-28T12:06:52.001Z,3.10
2022-08-28T12:09:43.429Z,3.30
2022-08-28T12:12:24.410Z,3.60
2022-08-28T12:15:10.163Z,3.13
2022-08-28T12:17:47.532Z,3.90
2022-08-28T12:20:34.372Z,3.77
2022-08-28T12:23:29.898Z,3.37
2022-08-28T12:26:12.373Z,3.77
2022-08-28T12:28:50.198Z,3.37
2022-08-28T12:31:47.509Z,4.10
2022-08-28T12:34:52.977Z,3.33
2022-08-28T12:37:50.975Z,3.53
2022-08-28T12:40:28.678Z,3.90
2022-08-28T12:43:07.296Z,3.20
2022-08-28T12:45:42.886Z,3.73
2022-08-28T12:48:49.042Z,3.47
2022-08-28T12:51:25.090Z,3.60
2022-08-28T12:53:58.833Z,3.53
2022-08-28T12:56:34.382Z,3.80
2022-08-28T12:59:33.808Z,3.92
2022-08-28T13:02:12.866Z,4.10
2022-08-28T13:05:01.140Z,3.35
2022-08-28T13:07:39.345Z,3.50
2022-08-28T13:10:22.761Z,3.72
2022-08-28T13:13:08.431Z,3.88
2022-08-28T13:15:56.312Z,4.07
2022-08-28T13:18:41.785Z,3.60
2022-08-28T13:21:33.580Z,4.07
2022-08-28T13:24:21.833Z,3.70
2022-08-28T13:27:04.967Z,3.72
2022-08-28T13:29:33.013Z,3.75
2022-08-28T13:32:17.737Z,4.13
2022-08-28T13:35:06.052Z,4.07
2022-08-28T13:37:53.212Z,3.20
2022-08-28T13:40:56.339Z,3.78
2022-08-28T13:43:17.494Z,3.92
2022-08-28T13:45:51.107Z,3.58
2022-08-28T13:48:31.193Z,4.10
2022-08-28T13:51:20.614Z,3.67
2022-08-28T13:53:49.709Z,3.78
2022-08-28T13:56:17.560Z,3.60
2022-08-28T13:58:44.609Z,3.65
2022-08-28T14:01:42.429Z,3.85
2022-08-28T14:04:09.767Z,3.50
2022-08-28T14:06:36.631Z,4.10
2022-08-28T14:09:06.067Z,3.80
2022-08-28T14:11:33.214Z,4.20
2022-08-28T14:13:59.997Z,3.47
2022-08-28T14:16:26.828Z,3.75
2022-08-28T14:18:54.216Z,3.97
2022-08-28T14:21:24.316Z,3.50
2022-08-28T14:23:51.338Z,4.13
2022-08-28T14:26:25.207Z,4.03
2022-08-28T14:28:56.582Z,3.83
2022-08-28T14:31:27.526Z,3.45
2022-08-28T14:34:00.790Z,3.60
2022-08-28T14:36:33.621Z,4.50
2022-08-28T14:39:09.153Z,3.90
2022-08-28T14:41:38.484Z,4.25
2022-08-28T14:44:05.369Z,4.47
2022-08-28T14:46:36.892Z,4.28
2022-08-28T14:49:13.238Z,4.28
2022-08-28T14:51:47.428Z,3.78
2022-08-28T14:54:21.284Z,3.63
2022-08-28T14:56:51.351Z,3.53
2022-08-28T14:59:24.681Z,3.80
2022-08-28T15:01:53.679Z,4.15
2022-08-28T15:04:26.478Z,4.25
2022-08-28T15:06:59.348Z,3.55
2022-08-28T15:09:27.044Z,3.97
2022-08-28T15:11:54.475Z,4.15
2022-08-28T15:14:23.921Z,3.55
2022-08-28T15:16:51.002Z,3.85
2022-08-28T15:19:23.163Z,3.63
2022-08-28T15:21:54.026Z,4.03
2022-08-28T15:24:26.443Z,3.58
2022-08-28T15:26:53.807Z,4.20
2022-08-28T15:29:21.033Z,3.75
2022-08-28T15:31:50.224Z,3.55
2022-08-28T15:34:22.552Z,4.32
2022-08-28T15:36:54.802Z,3.38
2022-08-28T15:39:45.991Z,3.30
2022-08-28T15:42:15.502Z,3.55
2022-08-28T15:44:42.651Z,3.60
2022-08-28T15:47:09.776Z,3.42
2022-08-28T15:49:48.666Z,3.10
2022-08-28T15:52:23.154Z,3.80
2022-08-28T15:54:49.998Z,3.23
2022-08-28T15:57:21.435Z,3.20
2022-08-28T15:59:50.433Z,3.20
2022-08-28T16:02:24.094Z,3.20
2022-08-28T16:04:57.084Z,3.27
2022-08-28T16:07:30.347Z,3.17
2022-08-28T16:09:59.664Z,3.40
2022-08-28T16:12:29.078Z,3.20
2022-08-28T16:14:58.948Z,3.20
2022-08-28T16:17:28.364Z,3.63
2022-08-28T16:19:55.507Z,3.57
2022-08-28T16:22:22.379Z,2.83
2022-08-28T16:24:51.762Z,2.93
2022-08-28T16:27:18.495Z,3.20
2022-08-28T16:29:45.876Z,3.03
2022-08-28T16:32:14.961Z,3.10
2022-08-28T16:34:45.082Z,3.60
2022-08-28T16:37:19.499Z,3.30
2022-08-28T16:39:55.912Z,3.07
2022-08-28T16:42:29.728Z,3.17
2022-08-28T16:45:02.077Z,3.10
2022-08-28T16:47:33.345Z,2.90
2022-08-28T16:50:06.534Z,2.80
2022-08-28T16:52:36.114Z,3.43
2022-08-28T16:55:08.566Z,3.77
2022-08-28T16:57:36.919Z,3.17
2022-08-28T17:00:09.840Z,3.13
2022-08-28T17:02:36.641Z,3.10
2022-08-28T17:05:04.868Z,3.20
2022-08-28T17:07:37.389Z,2.97
2022-08-28T17:10:10.017Z,3.00
2022-08-28T17:12:41.615Z,3.50
2022-08-28T17:15:11.599Z,3.60
2022-08-28T17:17:41.620Z,2.90
2022-08-28T17:20:33.824Z,3.27
2022-08-28T17:23:03.885Z,3.00
2022-08-28T17:25:33.400Z,3.03
2022-08-28T17:28:00.823Z,2.70
2022-08-28T17:30:27.756Z,2.80
2022-08-28T17:32:57.536Z,2.90
2022-08-28T17:35:27.275Z,2.97
2022-08-28T17:37:54.131Z,3.53
2022-08-28T17:40:21.776Z,3.17
2022-08-28T17:42:49.041Z,3.70
2022-08-28T17:45:18.468Z,3.67
2022-08-28T17:47:45.480Z,3.97
2022-08-28T17:50:15.286Z,3.20
2022-08-28T17:52:42.073Z,3.30
2022-08-28T17:55:11.299Z,3.13
2022-08-28T17:57:39.508Z,3.30
2022-08-28T18:00:16.577Z,3.40
2022-08-28T18:02:44.490Z,3.60
2022-08-28T18:05:16.896Z,3.20
2022-08-28T18:07:50.954Z,2.80
2022-08-28T18:10:21.536Z,2.80
2022-08-28T18:12:48.474Z,2.70
2022-08-28T18:15:15.342Z,2.80
2022-08-28T18:17:43.861Z,2.97
2022-08-28T18:20:11.848Z,3.00
2022-08-28T18:22:41.582Z,3.03
2022-08-28T18:25:29.201Z,2.70
2022-08-28T18:27:56.161Z,2.90
2022-08-28T18:30:25.492Z,2.73
2022-08-28T18:32:53.843Z,2.80
2022-08-28T18:35:31.850Z,3.27
2022-08-28T18:37:59.794Z,2.90
2022-08-28T18:40:29.887Z,3.33
2022-08-28T18:42:59.365Z,2.80
2022-08-28T18:45:28.957Z,3.27
2022-08-28T18:47:58.497Z,2.97
2022-08-28T18:50:29.029Z,2.80
2022-08-28T18:52:58.587Z,2.87
2022-08-28T18:55:32.480Z,3.10
2022-08-28T18:58:02.891Z,2.60
2022-08-28T19:00:32.168Z,2.60
2022-08-28T19:03:01.633Z,2.73
2022-08-28T19:05:31.995Z,2.80
2022-08-28T19:08:05.170Z,2.87
2022-08-28T19:10:34.861Z,3.03
2022-08-28T19:13:04.794Z,2.80
2022-08-28T19:15:39.953Z,3.00
2022-08-28T19:18:11.381Z,3.00
2022-08-28T19:20:38.368Z,2.87
2022-08-28T19:23:07.821Z,2.93
2022-08-28T19:25:34.994Z,2.70
2022-08-28T19:28:03.048Z,2.57
2022-08-28T19:30:36.604Z,2.57
2022-08-28T19:33:06.729Z,2.83
2022-08-28T19:35:38.389Z,2.57
2022-08-28T19:38:07.920Z,3.27
2022-08-28T19:40:35.459Z,3.57
2022-08-28T19:43:02.496Z,3.00
2022-08-28T19:45:34.903Z,2.60
2022-08-28T19:48:04.112Z,3.00
2022-08-28T19:50:30.951Z,3.10
2022-08-28T19:52:57.828Z,3.10
2022-08-28T19:55:29.387Z,3.00
2022-08-28T19:57:58.996Z,3.07
2022-08-28T20:00:31.719Z,2.67
2022-08-28T20:03:01.074Z,2.80
2022-08-28T20:05:28.162Z,3.10
2022-08-28T20:07:57.160Z,3.20
2022-08-28T20:10:28.240Z,2.87
2022-08-28T20:12:55.033Z,2.87
2022-08-28T20:15:22.150Z,2.97
2022-08-28T20:17:54.288Z,2.63
2022-08-28T20:20:23.765Z,2.90
2022-08-28T20:22:54.001Z,2.80
2022-08-28T20:25:26.056Z,3.27
2022-08-28T20:28:01.549Z,3.00
2022-08-28T20:30:29.424Z,2.80
2022-08-28T20:32:59.863Z,2.50
2022-08-28T20:35:29.277Z,2.83
2022-08-28T20:38:00.814Z,2.90
2022-08-28T20:40:30.324Z,2.80
2022-08-28T20:43:00.353Z,3.20
2022-08-28T20:45:29.432Z,2.73
2022-08-28T20:48:00.798Z,3.10
2022-08-28T20:50:29.810Z,3.00
2022-08-28T20:53:02.532Z,3.10
2022-08-28T20:55:31.758Z,3.00
2022-08-28T20:58:00.616Z,3.30
2022-08-28T21:00:27.522Z,2.87
2022-08-28T21:02:56.697Z,3.00
2022-08-28T21:05:26.104Z,3.60
2022-08-28T21:07:55.920Z,3.17
2022-08-28T21:10:23.549Z,3.00
2022-08-28T21:12:52.787Z,3.10
2022-08-28T21:15:24.232Z,3.10
2022-08-28T21:17:51.073Z,3.20
2022-08-28T21:20:19.965Z,2.90
2022-08-28T21:22:49.709Z,3.00
2022-08-28T21:25:20.310Z,2.97
2022-08-28T21:27:50.439Z,2.73
2022-08-28T21:30:23.278Z,3.60
2022-08-28T21:32:54.585Z,2.97
2022-08-28T21:35:21.479Z,3.40
2022-08-28T21:37:51.151Z,3.33
2022-08-28T21:40:21.368Z,3.23
2022-08-28T21:42:50.676Z,3.60
2022-08-28T21:45:22.334Z,3.10
2022-08-28T21:47:53.879Z,2.90
2022-08-28T21:50:20.859Z,3.80
2022-08-28T21:52:47.664Z,2.90
2022-08-28T21:55:16.331Z,3.27
2022-08-28T21:57:43.441Z,3.20
2022-08-28T22:00:20.493Z,3.00
2022-08-28T22:02:52.688Z,3.30
2022-08-28T22:05:24.317Z,3.40
2022-08-28T22:07:51.168Z,3.30
2022-08-28T22:10:20.485Z,2.97
2022-08-28T22:12:47.243Z,3.43
2022-08-28T22:15:16.755Z,3.03
2022-08-28T22:17:46.176Z,2.97
2022-08-28T22:20:13.079Z,3.13
2022-08-28T22:23:03.242Z,2.90
2022-08-28T22:25:40.708Z,3.27
2022-08-28T22:28:11.618Z,3.53
2022-08-28T22:30:46.120Z,2.90
2022-08-28T22:33:15.705Z,3.20
2022-08-28T22:35:42.658Z,3.40
2022-08-28T22:38:15.415Z,3.00
2022-08-28T22:40:42.446Z,3.60
2022-08-28T22:43:09.398Z,3.00
2022-08-28T22:45:38.587Z,3.37
2022-08-28T22:48:11.044Z,3.10
2022-08-28T22:50:38.037Z,3.17
2022-08-28T22:53:10.004Z,3.60
2022-08-28T22:55:43.922Z,3.30
2022-08-28T22:58:15.129Z,3.20
2022-08-28T23:00:42.403Z,2.90
2022-08-28T23:03:11.858Z,3.20
2022-08-28T23:05:39.033Z,3.30
2022-08-28T23:08:05.856Z,3.40
2022-08-28T23:10:57.895Z,3.67
2022-08-28T23:13:30.124Z,3.17
2022-08-28T23:15:57.251Z,3.20
2022-08-28T23:18:24.631Z,3.50
2022-08-28T23:20:55.318Z,3.40
2022-08-28T23:23:25.785Z,3.10
2022-08-28T23:25:52.571Z,3.20
2022-08-28T23:28:24.923Z,3.20
2022-08-28T23:30:54.462Z,3.67
2022-08-28T23:33:26.076Z,3.00
2022-08-28T23:35:57.611Z,2.90
2022-08-28T23:38:26.876Z,3.27
2022-08-28T23:40:54.587Z,3.20
2022-08-28T23:43:21.801Z,3.37
2022-08-28T23:45:49.107Z,3.50
2022-08-28T23:48:18.646Z,3.30
2022-08-28T23:50:45.621Z,2.93
2022-08-28T23:53:16.620Z,3.10
2022-08-28T23:55:46.863Z,3.30
2022-08-28T23:58:15.987Z,3.13
